Drumchapel, United Kingdom
Current Conditions -  °F | °C
As of 11:50 PM on Sunday 23 Nov 2014 (Local Time) from EGPF Reporting Station
Broken Clouds Broken Clouds  
Wind Chill: 40°   Ceiling: 2500
Heat Index: 43°   Visibility: 6mi
Dew Point: 39°   Wind: 5mph
Humidity: 87%   Direction: 280°W
Pressure: 30.06"   Gusts: NA
Location:  55.89°N, 4.33°W
Report Text: EGPF 232350Z AUTO 28004KT 9999 BKN025 06/04 Q1018
Loading
Personal Weather Stations






























Interactive Weather Map New forecast layout! Learn more

10-Day Weather Forecast

Advertisements
Track Severe Weather on mobile